createdAt,value
2023-02-22T00:00:15.027Z,2.42
2023-02-22T00:01:15.398Z,2.70
2023-02-22T00:02:15.081Z,2.80
2023-02-22T00:03:15.048Z,2.28
2023-02-22T00:04:15.075Z,2.41
2023-02-22T00:05:14.987Z,2.50
2023-02-22T00:06:14.987Z,2.77
2023-02-22T00:07:14.990Z,2.41
2023-02-22T00:08:14.980Z,2.32
2023-02-22T00:09:14.965Z,2.30
2023-02-22T00:10:14.963Z,2.77
2023-02-22T00:11:15.363Z,2.51
2023-02-22T00:12:14.933Z,2.55
2023-02-22T00:13:14.932Z,2.51
2023-02-22T00:14:14.937Z,2.06
2023-02-22T00:15:14.928Z,2.21
2023-02-22T00:16:14.934Z,2.64
2023-02-22T00:17:14.904Z,2.58
2023-02-22T00:18:14.906Z,2.65
2023-02-22T00:19:14.897Z,2.24
2023-02-22T00:20:15.260Z,2.35
2023-02-22T00:21:15.183Z,2.20
2023-02-22T00:22:14.906Z,2.70
2023-02-22T00:23:14.869Z,2.21
2023-02-22T00:24:14.866Z,2.27
2023-02-22T00:25:14.847Z,2.18
2023-02-22T00:26:14.840Z,2.49
2023-02-22T00:27:14.817Z,1.96
2023-02-22T00:28:14.815Z,2.37
2023-02-22T00:29:14.812Z,2.12
2023-02-22T00:30:14.877Z,2.54
2023-02-22T00:31:15.470Z,2.07
2023-02-22T00:33:14.838Z,2.67
2023-02-22T00:34:14.826Z,2.71
2023-02-22T00:35:14.826Z,2.42
2023-02-22T00:36:14.841Z,2.67
2023-02-22T00:37:14.843Z,2.44
2023-02-22T00:38:14.858Z,2.26
2023-02-22T00:39:14.840Z,1.98
2023-02-22T00:40:14.835Z,2.26
2023-02-22T00:41:15.315Z,2.52
2023-02-22T00:42:14.833Z,2.19
2023-02-22T00:43:14.836Z,2.03
2023-02-22T00:44:14.820Z,2.60
2023-02-22T00:45:14.839Z,2.34
2023-02-22T00:46:14.874Z,2.43
2023-02-22T00:47:14.829Z,2.26
2023-02-22T00:48:14.859Z,2.50
2023-02-22T00:49:14.812Z,2.09
2023-02-22T00:50:14.816Z,2.37
2023-02-22T00:51:15.289Z,2.74
2023-02-22T00:52:14.802Z,2.51
2023-02-22T00:53:14.803Z,2.12
2023-02-22T00:54:14.787Z,2.24
2023-02-22T00:55:14.771Z,1.98
2023-02-22T05:08:12.232Z,1.80
2023-02-22T05:09:12.222Z,1.20
2023-02-22T05:10:12.218Z,1.61
2023-02-22T05:11:12.236Z,1.80
2023-02-22T05:12:12.212Z,1.41
2023-02-22T05:13:12.200Z,1.91
2023-02-22T05:14:12.205Z,1.60
2023-02-22T05:15:12.234Z,1.39
2023-02-22T05:16:12.314Z,1.65
2023-02-22T05:17:12.204Z,1.80
2023-02-22T05:18:12.212Z,1.66
2023-02-22T05:19:12.205Z,1.68
2023-02-22T05:20:12.199Z,1.45
2023-02-22T05:21:12.211Z,1.33
2023-02-22T05:22:12.193Z,1.68
2023-02-22T05:23:12.214Z,1.26
2023-02-22T05:24:12.193Z,1.82
2023-02-22T05:25:12.194Z,1.53
2023-02-22T05:26:12.218Z,1.33
2023-02-22T05:27:12.197Z,1.28
2023-02-22T05:28:12.180Z,1.56
2023-02-22T05:29:12.198Z,1.65
2023-02-22T05:30:12.218Z,1.43
2023-02-22T05:31:12.196Z,1.85
2023-02-22T05:32:12.332Z,1.75
2023-02-22T05:33:12.181Z,1.57
2023-02-22T05:34:12.164Z,1.83
2023-02-22T05:35:12.172Z,1.52
2023-02-22T05:36:12.171Z,1.60
2023-02-22T05:37:12.170Z,1.74
2023-02-22T05:38:12.164Z,1.72
2023-02-22T05:39:12.158Z,1.65
2023-02-22T05:40:12.158Z,1.87
2023-02-22T05:41:12.145Z,1.67
2023-02-22T05:42:12.162Z,1.54
2023-02-22T05:43:12.145Z,1.47
2023-02-22T05:44:12.153Z,1.64
2023-02-22T05:45:12.149Z,1.75
2023-02-22T05:46:12.198Z,1.76
2023-02-22T05:47:12.157Z,1.56
2023-02-22T05:48:12.162Z,1.51
2023-02-22T05:49:12.151Z,1.72
2023-02-22T05:50:12.154Z,1.57
2023-02-22T05:51:12.154Z,1.75
2023-02-22T05:52:12.214Z,1.83
2023-02-22T05:53:12.163Z,2.01
2023-02-22T05:54:12.163Z,1.44
2023-02-22T05:55:12.165Z,1.62
2023-02-22T05:56:12.155Z,1.53
2023-02-22T05:57:12.181Z,1.58
2023-02-22T05:58:12.153Z,1.60
2023-02-22T05:59:12.155Z,1.53
2023-02-22T06:00:12.155Z,1.45
2023-02-22T06:01:12.145Z,1.60
2023-02-22T06:02:12.189Z,1.70
2023-02-22T06:03:12.144Z,1.96
2023-02-22T06:04:12.144Z,1.68
2023-02-22T06:05:12.173Z,1.37
2023-02-22T06:06:12.143Z,1.62
2023-02-22T06:07:12.150Z,1.58
2023-02-22T06:08:12.144Z,1.85
2023-02-22T06:09:12.135Z,1.66
2023-02-22T06:10:12.121Z,1.44
2023-02-22T06:11:12.181Z,1.55
2023-02-22T06:12:12.116Z,1.69
2023-02-22T06:13:12.128Z,1.80
2023-02-22T06:14:12.124Z,1.57
2023-02-22T06:15:12.122Z,1.28
2023-02-22T06:16:12.170Z,1.78
2023-02-22T06:17:12.121Z,1.62
2023-02-22T06:18:12.133Z,1.79
2023-02-22T06:19:12.125Z,1.95
2023-02-22T06:20:12.130Z,1.83
2023-02-22T06:21:12.123Z,1.45
2023-02-22T06:22:12.120Z,1.68
2023-02-22T06:23:12.124Z,1.95
2023-02-22T06:24:12.125Z,1.79
2023-02-22T06:25:12.113Z,1.67
2023-02-22T06:26:12.164Z,1.62
2023-02-22T06:27:12.122Z,1.38
2023-02-22T06:28:12.119Z,1.84
2023-02-22T06:29:12.142Z,1.59
2023-02-22T06:30:13.305Z,1.43
2023-02-22T06:31:12.165Z,1.92
2023-02-22T06:32:12.125Z,2.02
2023-02-22T06:33:12.102Z,1.66
2023-02-22T06:34:12.131Z,1.63
2023-02-22T06:35:12.132Z,1.92
2023-02-22T06:36:12.086Z,2.09
2023-02-22T06:37:12.094Z,2.08
2023-02-22T06:38:12.111Z,1.76
2023-02-22T06:39:12.092Z,2.03
2023-02-22T06:40:12.081Z,2.19
2023-02-22T06:41:12.076Z,2.19
2023-02-22T06:42:12.149Z,1.96
2023-02-22T06:43:12.081Z,1.89
2023-02-22T06:44:12.072Z,1.79
2023-02-22T06:45:12.072Z,2.13
2023-02-22T06:46:12.056Z,2.08
2023-02-22T06:47:12.057Z,1.75
2023-02-22T06:48:12.230Z,2.04
2023-02-22T06:49:12.058Z,2.30
2023-02-22T06:50:12.036Z,1.79
2023-02-22T06:51:12.014Z,2.35
2023-02-22T06:52:12.044Z,1.94
2023-02-22T06:53:11.980Z,2.34
2023-02-22T06:54:11.969Z,2.78
2023-02-22T06:55:11.977Z,2.88
2023-02-22T06:56:11.957Z,2.46
2023-02-22T06:57:11.985Z,2.33
2023-02-22T06:58:12.006Z,2.14
2023-02-22T06:59:11.909Z,2.09
2023-02-22T07:00:11.912Z,2.56
2023-02-22T07:01:11.958Z,2.44
2023-02-22T07:02:11.860Z,2.84
2023-02-22T07:03:11.893Z,2.11
2023-02-22T07:04:11.991Z,2.14
2023-02-22T07:05:11.832Z,1.85
2023-02-22T07:06:11.947Z,2.23
2023-02-22T07:07:11.800Z,2.10
2023-02-22T07:08:11.782Z,2.66
2023-02-22T07:09:11.786Z,1.97
2023-02-22T07:10:11.756Z,2.13
2023-02-22T07:11:11.763Z,2.24
2023-02-22T07:12:11.780Z,2.26
2023-02-22T07:13:11.804Z,2.26
2023-02-22T07:14:11.744Z,2.77
2023-02-22T07:15:11.693Z,2.40
2023-02-22T07:16:11.723Z,2.16
2023-02-22T07:17:11.696Z,1.81
2023-02-22T07:18:11.666Z,2.39
2023-02-22T07:19:11.698Z,2.01
2023-02-22T07:20:11.680Z,2.08
2023-02-22T07:21:11.640Z,2.36
2023-02-22T07:27:11.574Z,1.70
2023-02-22T07:28:11.572Z,2.03
2023-02-22T07:29:11.552Z,2.08
2023-02-22T07:30:11.591Z,2.49
2023-02-22T07:31:11.518Z,2.35
2023-02-22T07:32:11.650Z,1.91
2023-02-22T07:33:11.555Z,2.16
2023-02-22T07:34:11.477Z,2.44
2023-02-22T07:35:11.455Z,2.36
2023-02-22T07:36:11.465Z,2.36
2023-02-22T07:37:11.419Z,2.52
2023-02-22T07:38:11.390Z,2.50
2023-02-22T07:39:11.398Z,2.38
2023-02-22T07:40:11.360Z,2.30
2023-02-22T07:41:11.432Z,2.47
2023-02-22T07:42:11.318Z,2.80
2023-02-22T07:43:11.320Z,2.76
2023-02-22T07:44:11.269Z,2.61
2023-02-22T07:45:11.247Z,2.60
2023-02-22T07:46:11.231Z,3.73
2023-02-22T07:47:11.213Z,2.69
2023-02-22T07:48:11.203Z,2.80
2023-02-22T07:49:11.194Z,2.80
2023-02-22T07:50:11.161Z,3.44
2023-02-22T07:51:11.185Z,3.07
2023-02-22T07:52:11.123Z,2.83
2023-02-22T07:53:11.278Z,2.78
2023-02-22T07:54:11.130Z,2.78
2023-02-22T07:55:11.135Z,2.73
2023-02-22T07:56:11.059Z,2.84
2023-02-22T07:57:11.256Z,2.56
2023-02-22T07:58:11.031Z,2.42
2023-02-22T07:59:10.966Z,2.75
2023-02-22T08:00:10.941Z,3.01
2023-02-22T08:01:10.945Z,2.48
2023-02-22T08:02:10.940Z,2.83
2023-02-22T08:03:10.946Z,2.53
2023-02-22T08:04:10.855Z,2.36
2023-02-22T08:05:10.836Z,3.31
2023-02-22T08:06:10.816Z,2.82
2023-02-22T08:07:10.772Z,2.92
2023-02-22T08:08:10.755Z,3.66
2023-02-22T08:09:10.724Z,2.51
2023-02-22T08:10:10.720Z,2.86
2023-02-22T08:11:10.709Z,2.80
2023-02-22T08:12:10.662Z,2.50
2023-02-22T08:13:10.658Z,2.68
2023-02-22T08:14:10.630Z,3.05
2023-02-22T08:15:10.616Z,2.58
2023-02-22T08:16:10.597Z,2.75
2023-02-22T08:17:10.588Z,2.59
2023-02-22T08:18:10.566Z,2.69
2023-02-22T08:19:10.543Z,2.60
2023-02-22T08:20:10.512Z,2.46
2023-02-22T08:21:10.502Z,2.55
2023-02-22T08:22:10.479Z,2.80
2023-02-22T08:23:10.450Z,2.32
2023-02-22T08:24:10.437Z,2.74
2023-02-22T08:25:10.424Z,2.67
2023-02-22T08:26:10.398Z,2.44
2023-02-22T08:27:10.366Z,2.39
2023-02-22T08:28:10.342Z,2.33
2023-02-22T08:29:10.343Z,2.66
2023-02-22T08:30:10.393Z,2.70
2023-02-22T08:31:10.285Z,2.83
2023-02-22T08:32:10.382Z,2.79
2023-02-22T08:33:10.335Z,2.95
2023-02-22T08:34:10.224Z,2.65
2023-02-22T08:35:10.262Z,2.73
2023-02-22T08:36:10.201Z,3.54
2023-02-22T08:37:10.155Z,2.62
2023-02-22T08:38:10.167Z,3.19
2023-02-22T08:39:10.120Z,3.61
2023-02-22T08:40:10.098Z,3.26
2023-02-22T08:41:10.087Z,4.37
2023-02-22T08:42:10.061Z,4.81
2023-02-22T08:43:10.055Z,4.71
2023-02-22T08:44:10.074Z,4.51
2023-02-22T08:45:10.061Z,5.03
2023-02-22T08:46:10.067Z,4.85
2023-02-22T08:47:10.030Z,5.33
2023-02-22T08:48:10.038Z,5.00
2023-02-22T08:49:10.032Z,5.14
2023-02-22T08:50:10.034Z,4.95
2023-02-22T08:51:10.044Z,4.18
2023-02-22T08:52:10.036Z,3.54
2023-02-22T08:53:10.040Z,3.58
2023-02-22T08:54:10.070Z,3.21
2023-02-22T08:55:10.053Z,3.75
2023-02-22T08:56:10.074Z,3.23
2023-02-22T08:57:10.081Z,3.37
2023-02-22T08:58:10.094Z,3.14
2023-02-22T08:59:10.075Z,2.42
2023-02-22T09:00:10.080Z,3.11
2023-02-22T09:01:10.080Z,3.02
2023-02-22T09:02:10.091Z,3.68
2023-02-22T09:03:10.082Z,3.32
2023-02-22T09:04:10.081Z,2.82
2023-02-22T09:05:10.090Z,2.80
2023-02-22T09:06:10.161Z,2.99
2023-02-22T09:07:10.127Z,3.17
2023-02-22T09:08:10.787Z,2.79
2023-02-22T09:09:10.066Z,3.03
2023-02-22T09:10:10.336Z,2.63
2023-02-22T09:11:10.234Z,2.90
2023-02-22T09:12:10.059Z,2.96
2023-02-22T09:13:10.055Z,2.70
2023-02-22T09:14:10.030Z,2.65
2023-02-22T09:15:10.052Z,3.22
2023-02-22T09:16:10.029Z,2.27
2023-02-22T09:17:09.999Z,2.44
2023-02-22T09:18:09.987Z,1.91
2023-02-22T09:19:09.993Z,2.52
2023-02-22T09:20:09.975Z,2.28
2023-02-22T09:21:10.213Z,2.72
2023-02-22T09:22:09.978Z,2.18
2023-02-22T09:23:10.008Z,2.75
2023-02-22T09:24:09.978Z,2.36
2023-02-22T09:25:16.572Z,2.72
2023-02-22T09:26:10.983Z,2.38
2023-02-22T09:27:09.985Z,2.69
2023-02-22T09:28:09.997Z,2.36
2023-02-22T09:29:09.980Z,2.45
2023-02-22T09:30:09.967Z,2.34
2023-02-22T09:31:09.977Z,2.62
2023-02-22T09:32:10.172Z,3.26
2023-02-22T09:33:10.195Z,3.50
2023-02-22T09:34:09.921Z,3.03
2023-02-22T09:35:09.952Z,2.83
2023-02-22T09:36:09.903Z,3.12
2023-02-22T09:37:09.903Z,2.89
2023-02-22T09:38:09.899Z,2.85
2023-02-22T09:39:09.874Z,2.96
2023-02-22T09:40:09.925Z,2.51
2023-02-22T09:41:09.850Z,2.59
2023-02-22T09:42:09.838Z,2.29
2023-02-22T09:43:09.816Z,2.85
2023-02-22T09:44:09.814Z,2.46
2023-02-22T09:45:09.805Z,2.58
2023-02-22T09:46:09.838Z,2.47
2023-02-22T09:47:09.783Z,2.51
2023-02-22T09:48:21.206Z,2.60
2023-02-22T09:49:10.813Z,3.62
2023-02-22T09:50:09.747Z,2.73
2023-02-22T09:51:09.723Z,2.73
2023-02-22T09:52:09.722Z,2.93
2023-02-22T09:53:09.686Z,2.72
2023-02-22T09:54:09.664Z,3.23
2023-02-22T09:55:09.656Z,2.77
2023-02-22T09:56:09.650Z,2.77
2023-02-22T09:57:09.624Z,2.35
2023-02-22T09:58:09.627Z,2.64
2023-02-22T09:59:09.597Z,2.79
2023-02-22T10:00:09.694Z,3.42
2023-02-22T10:01:09.561Z,2.48
2023-02-22T10:02:09.557Z,2.72
2023-02-22T10:03:09.527Z,2.53
2023-02-22T10:04:09.528Z,3.25
2023-02-22T10:05:09.552Z,3.07
2023-02-22T10:06:09.466Z,2.67
2023-02-22T10:07:09.451Z,2.63
2023-02-22T10:08:09.474Z,2.31
2023-02-22T10:09:09.442Z,2.77
2023-02-22T10:10:09.403Z,3.07
2023-02-22T10:11:09.382Z,2.47
2023-02-22T10:12:09.373Z,3.03
2023-02-22T10:13:09.363Z,3.23
2023-02-22T10:14:09.341Z,2.92
2023-02-22T10:15:09.316Z,3.35
2023-02-22T10:17:09.291Z,2.62
2023-02-22T10:18:09.277Z,2.70
2023-02-22T10:19:09.285Z,2.38
2023-02-22T10:20:09.234Z,2.92
2023-02-22T10:21:09.215Z,3.17
2023-02-22T10:31:09.098Z,2.99
2023-02-22T11:25:08.368Z,1.90
2023-02-22T11:34:08.278Z,2.43
2023-02-22T12:06:07.562Z,2.25
2023-02-22T12:07:07.556Z,2.36
2023-02-22T12:08:18.960Z,2.21
2023-02-22T12:09:08.467Z,2.25
2023-02-22T12:11:07.433Z,2.35
2023-02-22T12:12:07.389Z,2.03
2023-02-22T12:13:07.362Z,2.29
2023-02-22T12:14:07.368Z,2.33
2023-02-22T12:15:07.314Z,1.86
2023-02-22T12:16:07.327Z,2.47
2023-02-22T12:17:07.263Z,2.28
2023-02-22T12:18:07.277Z,2.06
2023-02-22T12:19:07.219Z,2.02
2023-02-22T12:20:07.196Z,1.97
2023-02-22T12:21:07.183Z,2.48
2023-02-22T12:22:07.164Z,1.97
2023-02-22T12:23:07.130Z,1.89
2023-02-22T12:24:07.090Z,2.15
2023-02-22T12:25:09.727Z,2.18
2023-02-22T12:26:07.039Z,2.23
2023-02-22T12:27:07.005Z,2.92
2023-02-22T12:28:15.608Z,3.01
2023-02-22T12:29:07.991Z,2.28
2023-02-22T12:30:06.961Z,2.31
2023-02-22T12:31:06.975Z,2.09
2023-02-22T12:32:06.945Z,2.89
2023-02-22T12:33:06.840Z,2.77
2023-02-22T12:34:06.949Z,2.48
2023-02-22T12:35:06.810Z,2.37
2023-02-22T12:36:06.757Z,2.25
2023-02-22T12:37:06.740Z,2.42
2023-02-22T12:38:06.719Z,2.61
2023-02-22T12:39:07.709Z,2.42
2023-02-22T12:40:06.662Z,2.30
2023-02-22T12:41:06.633Z,1.67
2023-02-22T12:42:06.613Z,2.57
2023-02-22T12:43:06.591Z,2.33
2023-02-22T12:44:06.553Z,2.25
2023-02-22T12:45:07.393Z,1.97
2023-02-22T12:46:06.811Z,1.93
2023-02-22T12:47:06.487Z,2.48
2023-02-22T12:48:06.448Z,2.55
2023-02-22T12:49:06.428Z,2.20
2023-02-22T12:50:06.392Z,2.66
2023-02-22T12:51:06.480Z,2.29
2023-02-22T12:52:20.623Z,2.16
2023-02-22T12:53:07.300Z,2.53
2023-02-22T12:54:06.291Z,2.94
2023-02-22T12:55:06.261Z,2.40
2023-02-22T12:56:06.303Z,2.05
2023-02-22T12:57:06.237Z,2.04
2023-02-22T12:58:06.169Z,2.27
2023-02-22T12:59:06.132Z,2.07
2023-02-22T13:00:06.131Z,2.16
2023-02-22T13:01:14.915Z,1.68
2023-02-22T13:02:07.065Z,2.30
2023-02-22T13:03:06.025Z,2.10
2023-02-22T13:04:19.753Z,2.34
2023-02-22T13:05:07.036Z,1.66
2023-02-22T13:06:06.087Z,2.06
2023-02-22T13:07:05.908Z,1.91
2023-02-22T13:08:05.894Z,2.24
2023-02-22T13:09:05.872Z,2.25
2023-02-22T13:10:05.848Z,1.96
2023-02-22T13:11:05.797Z,1.68
2023-02-22T13:12:05.774Z,2.22
2023-02-22T13:13:05.731Z,1.92
2023-02-22T13:14:05.719Z,1.68
2023-02-22T13:15:05.754Z,1.96
2023-02-22T13:16:05.714Z,1.82
2023-02-22T13:17:05.657Z,2.03
2023-02-22T13:18:05.624Z,1.68
2023-02-22T13:19:05.602Z,1.68
2023-02-22T13:20:05.660Z,1.58
2023-02-22T13:21:05.567Z,1.50
2023-02-22T13:22:05.484Z,1.63
2023-02-22T13:23:05.434Z,1.77
2023-02-22T13:24:05.522Z,1.59
2023-02-22T13:25:05.382Z,1.69
2023-02-22T13:26:05.354Z,1.85
2023-02-22T13:27:05.304Z,1.84
2023-02-22T13:28:05.279Z,1.63
2023-02-22T13:29:05.291Z,1.74
2023-02-22T13:30:05.315Z,1.25
2023-02-22T13:31:05.183Z,1.67
2023-02-22T13:32:05.181Z,1.43
2023-02-22T13:33:05.120Z,1.71
2023-02-22T13:34:05.078Z,1.71
2023-02-22T13:35:05.042Z,1.24
2023-02-22T13:36:04.999Z,1.77
2023-02-22T13:37:04.962Z,1.47
2023-02-22T13:38:04.945Z,1.53
2023-02-22T13:39:04.896Z,1.55
2023-02-22T13:40:04.915Z,1.39
2023-02-22T13:41:04.845Z,1.38
2023-02-22T13:42:04.813Z,1.31
2023-02-22T13:43:04.761Z,2.50
2023-02-22T13:44:04.747Z,1.68
2023-02-22T13:45:04.715Z,1.45
2023-02-22T13:46:04.726Z,1.30
2023-02-22T13:47:04.683Z,1.08
2023-02-22T13:48:04.607Z,1.55
2023-02-22T13:49:04.565Z,1.09
2023-02-22T13:50:04.586Z,1.39
2023-02-22T13:51:04.504Z,1.54
2023-02-22T13:52:04.473Z,1.47
2023-02-22T13:53:04.438Z,1.39
2023-02-22T13:54:04.406Z,1.30
2023-02-22T13:55:04.367Z,1.51
2023-02-22T13:56:04.338Z,1.44
2023-02-22T13:57:04.335Z,1.47
2023-02-22T13:58:04.277Z,1.54
2023-02-22T13:59:04.232Z,1.53
2023-02-22T14:00:04.287Z,1.65
2023-02-22T14:01:04.172Z,1.15
2023-02-22T14:02:04.125Z,1.37
2023-02-22T14:03:04.108Z,1.67
2023-02-22T14:04:04.041Z,1.56
2023-02-22T14:05:04.006Z,1.40
2023-02-22T14:06:03.998Z,1.35
2023-02-22T14:07:03.928Z,1.38
2023-02-22T14:08:03.910Z,1.48
2023-02-22T14:09:03.855Z,1.15
2023-02-22T14:10:03.886Z,1.32
2023-02-22T14:11:03.793Z,1.49
2023-02-22T14:12:03.752Z,1.64
2023-02-22T14:13:03.713Z,1.24
2023-02-22T14:14:03.673Z,1.52
2023-02-22T14:15:03.632Z,1.39
2023-02-22T14:16:03.673Z,1.14
2023-02-22T14:17:03.648Z,1.20
2023-02-22T14:18:03.540Z,1.51
2023-02-22T14:19:03.499Z,1.19
2023-02-22T14:20:03.467Z,1.28
2023-02-22T14:21:03.439Z,1.03
2023-02-22T14:22:03.392Z,1.38
2023-02-22T14:46:03.374Z,1.36
2023-02-22T14:47:03.279Z,1.58
2023-02-22T14:48:03.322Z,1.66
2023-02-22T14:49:03.316Z,1.58
2023-02-22T14:50:03.358Z,1.38
2023-02-22T14:51:11.889Z,1.39
2023-02-22T14:52:04.342Z,1.02
2023-02-22T14:53:03.289Z,1.88
2023-02-22T14:54:03.269Z,1.30
2023-02-22T14:55:03.246Z,1.09
2023-02-22T14:56:03.233Z,1.51
2023-02-22T14:57:03.172Z,1.51
2023-02-22T14:58:03.130Z,1.56
2023-02-22T14:59:03.087Z,1.15
2023-02-22T15:00:03.144Z,1.53
2023-02-22T15:01:03.019Z,1.36
2023-02-22T15:02:11.389Z,1.63
2023-02-22T15:03:04.016Z,1.79
2023-02-22T15:04:08.297Z,1.55
2023-02-22T15:05:03.986Z,1.57
2023-02-22T15:06:02.865Z,1.74
2023-02-22T15:07:02.837Z,1.80
2023-02-22T15:08:02.813Z,2.17
2023-02-22T15:09:02.840Z,1.94
2023-02-22T15:10:02.873Z,1.89
2023-02-22T15:11:02.774Z,1.55
2023-02-22T15:12:02.676Z,1.47
2023-02-22T15:13:02.636Z,1.31
2023-02-22T15:14:02.638Z,1.61
2023-02-22T15:15:02.586Z,1.90
2023-02-22T15:18:02.503Z,1.92
2023-02-22T15:19:02.469Z,1.75
2023-02-22T15:20:02.462Z,1.46
2023-02-22T15:21:02.395Z,1.47
2023-02-22T15:22:02.390Z,1.42
2023-02-22T15:23:02.348Z,1.62
2023-02-22T15:24:02.307Z,1.75
2023-02-22T15:25:02.271Z,1.76
2023-02-22T15:26:02.238Z,1.56
2023-02-22T15:27:05.036Z,1.47
2023-02-22T15:28:02.188Z,1.36
2023-02-22T15:29:02.176Z,1.44
2023-02-22T15:30:02.128Z,1.52
2023-02-22T15:31:02.079Z,1.48
2023-02-22T15:32:02.080Z,1.42
2023-02-22T15:33:04.771Z,1.74
2023-02-22T15:34:01.988Z,1.31
2023-02-22T15:35:01.984Z,1.45
2023-02-22T15:36:01.956Z,1.33
2023-02-22T15:37:01.927Z,1.32
2023-02-22T15:38:01.894Z,1.85
2023-02-22T15:39:01.865Z,1.53
2023-02-22T15:40:01.856Z,1.18
2023-02-22T15:41:01.803Z,1.27
2023-02-22T15:42:01.809Z,1.53
2023-02-22T15:43:01.772Z,1.46
2023-02-22T15:44:05.441Z,1.32
2023-02-22T15:45:02.740Z,1.31
2023-02-22T15:46:01.748Z,1.59
2023-02-22T15:47:01.678Z,1.46
2023-02-22T15:48:01.700Z,1.32
2023-02-22T15:49:01.638Z,1.64
2023-02-22T15:50:02.646Z,1.42
2023-02-22T15:51:01.602Z,1.44
2023-02-22T15:52:01.579Z,1.34
2023-02-22T15:53:01.540Z,1.81
2023-02-22T15:54:01.524Z,1.30
2023-02-22T15:55:01.483Z,1.56
2023-02-22T15:56:01.465Z,1.67
2023-02-22T15:57:01.446Z,1.36
2023-02-22T15:58:01.420Z,1.56
2023-02-22T15:59:01.409Z,1.66
2023-02-22T16:00:01.372Z,1.61
2023-02-22T16:01:01.374Z,1.27
2023-02-22T16:02:01.362Z,1.50
2023-02-22T16:03:01.292Z,1.47
2023-02-22T16:04:01.291Z,1.54
2023-02-22T16:05:01.651Z,1.40
2023-02-22T16:06:01.639Z,2.07
2023-02-22T16:07:01.220Z,1.46
2023-02-22T16:08:01.179Z,1.54
2023-02-22T16:09:01.163Z,1.43
2023-02-22T16:10:01.171Z,1.60
2023-02-22T16:11:01.118Z,1.77
2023-02-22T16:12:01.090Z,1.75
2023-02-22T16:13:01.059Z,1.72
2023-02-22T16:14:01.027Z,1.56
2023-02-22T16:15:00.991Z,1.66
2023-02-22T16:16:00.978Z,1.76
2023-02-22T16:17:00.937Z,1.48
2023-02-22T16:18:02.574Z,1.68
2023-02-22T16:19:00.895Z,1.69
2023-02-22T16:20:00.870Z,1.65
2023-02-22T16:21:00.853Z,2.14
2023-02-22T16:22:00.809Z,1.94
2023-02-22T16:23:00.776Z,2.34
2023-02-22T16:24:13.949Z,2.32
2023-02-22T16:25:01.755Z,1.85
2023-02-22T16:26:00.708Z,1.90
2023-02-22T16:27:00.679Z,1.81
2023-02-22T16:28:00.666Z,1.84
2023-02-22T16:29:00.643Z,1.83
2023-02-22T16:30:00.619Z,2.15
2023-02-22T16:31:00.671Z,2.07
2023-02-22T16:32:00.723Z,1.80
2023-02-22T16:33:00.579Z,2.00
2023-02-22T16:34:00.540Z,2.07
2023-02-22T16:35:00.530Z,1.98
2023-02-22T16:36:00.488Z,2.16
2023-02-22T16:37:00.472Z,1.89
2023-02-22T16:38:00.457Z,1.99
2023-02-22T16:39:00.419Z,1.91
2023-02-22T16:40:00.403Z,1.81
2023-02-22T16:41:00.389Z,1.75
2023-02-22T16:42:00.353Z,1.92
2023-02-22T16:43:00.324Z,2.71
2023-02-22T16:44:00.344Z,2.07
2023-02-22T16:45:00.267Z,1.74
2023-02-22T16:46:00.399Z,2.31
2023-02-22T16:47:00.222Z,2.25
2023-02-22T16:48:00.194Z,1.97
2023-02-22T16:49:00.180Z,1.87
2023-02-22T16:50:00.174Z,2.01
2023-02-22T16:51:00.149Z,2.02
2023-02-22T16:52:00.114Z,1.77
2023-02-22T16:53:00.089Z,1.95
2023-02-22T16:54:00.067Z,1.58
2023-02-22T16:55:00.026Z,1.81
2023-02-22T16:56:00.015Z,1.59
2023-02-22T16:56:59.975Z,1.71
2023-02-22T16:57:59.960Z,1.66
2023-02-22T16:58:59.940Z,2.29
2023-02-22T16:59:59.904Z,1.66
2023-02-22T17:00:59.894Z,2.33
2023-02-22T17:01:59.860Z,1.70
2023-02-22T17:02:59.837Z,2.07
2023-02-22T17:03:59.895Z,1.63
2023-02-22T17:04:59.802Z,1.65
2023-02-22T17:05:59.769Z,1.90
2023-02-22T17:06:59.740Z,1.81
2023-02-22T17:07:59.711Z,1.63
2023-02-22T17:08:59.679Z,1.70
2023-02-22T17:09:59.712Z,2.15
2023-02-22T17:10:59.638Z,1.96
2023-02-22T17:11:59.622Z,1.43
2023-02-22T17:13:03.504Z,1.84
2023-02-22T17:14:00.601Z,1.54
2023-02-22T17:14:59.600Z,1.99
2023-02-22T17:15:59.573Z,1.94
2023-02-22T17:16:59.524Z,2.15
2023-02-22T17:17:59.511Z,2.37
2023-02-22T17:18:59.489Z,2.07
2023-02-22T17:19:59.485Z,1.61
2023-02-22T17:20:59.449Z,1.60
2023-02-22T17:21:59.445Z,2.43
2023-02-22T17:22:59.416Z,2.09
2023-02-22T17:23:59.393Z,2.33
2023-02-22T17:24:59.368Z,1.64
2023-02-22T17:25:59.347Z,1.96
2023-02-22T17:26:59.343Z,2.12
2023-02-22T17:27:59.306Z,1.87
2023-02-22T17:28:59.292Z,1.77
2023-02-22T17:29:59.264Z,2.09
2023-02-22T17:30:59.244Z,2.13
2023-02-22T17:31:59.258Z,2.08
2023-02-22T17:32:59.203Z,2.63
2023-02-22T17:33:59.252Z,2.05
2023-02-22T17:34:59.168Z,2.62
2023-02-22T17:35:59.161Z,1.78
2023-02-22T17:36:59.139Z,1.93
2023-02-22T17:37:59.110Z,1.94
2023-02-22T17:38:59.107Z,1.70
2023-02-22T17:39:59.085Z,2.34
2023-02-22T17:40:59.078Z,2.42
2023-02-22T17:41:59.038Z,2.43
2023-02-22T17:42:59.038Z,2.37
2023-02-22T17:43:59.016Z,2.41
2023-02-22T17:44:58.996Z,2.30
2023-02-22T17:45:59.112Z,2.19
2023-02-22T17:46:58.988Z,2.24
2023-02-22T17:47:59.008Z,2.33
2023-02-22T17:48:58.960Z,2.47
2023-02-22T17:49:58.935Z,2.48
2023-02-22T17:50:58.979Z,2.50
2023-02-22T17:51:58.863Z,3.55
2023-02-22T17:52:58.826Z,2.66
2023-02-22T17:53:58.822Z,2.66
2023-02-22T17:54:58.798Z,3.03
2023-02-22T17:55:58.769Z,2.42
2023-02-22T17:56:58.749Z,2.38
2023-02-22T17:57:58.723Z,2.57
2023-02-22T17:58:58.707Z,3.13
2023-02-22T17:59:58.711Z,2.96
2023-02-22T18:00:58.681Z,2.96
2023-02-22T18:01:58.709Z,2.76
2023-02-22T18:02:58.675Z,2.62
2023-02-22T18:03:58.610Z,2.91
2023-02-22T18:04:58.608Z,3.22
2023-02-22T18:05:58.735Z,2.55
2023-02-22T18:06:58.576Z,2.92
2023-02-22T18:07:58.576Z,2.42
2023-02-22T18:08:58.547Z,2.59
2023-02-22T18:09:58.522Z,2.93
2023-02-22T18:10:58.506Z,2.81
2023-02-22T18:11:58.504Z,3.14
2023-02-22T18:12:58.480Z,2.29
2023-02-22T18:13:58.468Z,2.73
2023-02-22T18:14:58.451Z,3.33
2023-02-22T18:15:58.463Z,2.82
2023-02-22T18:16:58.450Z,2.89
2023-02-22T18:17:58.424Z,2.94
2023-02-22T18:18:58.429Z,3.00
2023-02-22T18:19:58.420Z,3.04
2023-02-22T18:20:58.432Z,2.35
2023-02-22T18:21:58.419Z,2.46
2023-02-22T18:22:58.413Z,2.87
2023-02-22T18:23:58.418Z,3.04
2023-02-22T18:25:00.966Z,3.17
2023-02-22T18:26:10.028Z,2.78
2023-02-22T18:26:59.399Z,2.95
2023-02-22T18:27:58.390Z,2.54
2023-02-22T18:28:58.394Z,3.06
2023-02-22T18:29:58.388Z,2.87
2023-02-22T18:30:58.416Z,3.18
2023-02-22T18:31:58.376Z,2.95
2023-02-22T18:32:58.376Z,2.70
2023-02-22T18:33:58.352Z,2.58
2023-02-22T18:34:58.376Z,2.93
2023-02-22T18:35:58.353Z,2.41
2023-02-22T18:36:58.359Z,3.02
2023-02-22T18:37:58.345Z,2.59
2023-02-22T18:38:58.345Z,2.90
2023-02-22T18:39:58.353Z,2.45
2023-02-22T18:40:58.329Z,2.81
2023-02-22T18:41:58.318Z,2.77
2023-02-22T18:42:58.322Z,2.64
2023-02-22T18:43:58.317Z,2.79
2023-02-22T18:44:58.313Z,2.80
2023-02-22T18:45:58.316Z,3.08
2023-02-22T18:46:58.312Z,3.22
2023-02-22T18:47:58.293Z,2.90
2023-02-22T18:48:58.282Z,3.08
2023-02-22T18:49:58.290Z,2.73
2023-02-22T18:50:58.300Z,2.34
2023-02-22T18:51:58.283Z,2.71
2023-02-22T18:52:58.294Z,3.18
2023-02-22T18:53:58.282Z,2.70
2023-02-22T18:54:58.273Z,2.67
2023-02-22T18:55:58.271Z,2.82
2023-02-22T18:56:58.260Z,2.79
2023-02-22T18:57:58.249Z,2.70
2023-02-22T18:58:58.241Z,3.04
2023-02-22T18:59:58.242Z,3.19
2023-02-22T19:00:58.247Z,2.51
2023-02-22T19:01:58.301Z,3.29
2023-02-22T19:02:58.335Z,3.25
2023-02-22T19:03:58.257Z,2.89
2023-02-22T19:04:58.243Z,2.88
2023-02-22T19:05:58.258Z,2.94
2023-02-22T19:06:58.249Z,3.12
2023-02-22T19:07:58.246Z,2.84
2023-02-22T19:08:58.235Z,3.05
2023-02-22T19:09:58.270Z,3.45
2023-02-22T19:45:58.309Z,3.92
2023-02-22T19:46:58.284Z,3.77
2023-02-22T19:47:58.284Z,3.60
2023-02-22T19:48:58.298Z,4.09
2023-02-22T19:49:59.839Z,3.98
2023-02-22T19:50:58.295Z,3.63
2023-02-22T19:51:58.330Z,4.35
2023-02-22T19:52:58.283Z,3.74
2023-02-22T19:53:58.311Z,4.09
2023-02-22T19:54:58.285Z,3.45
2023-02-22T19:55:58.286Z,4.28
2023-02-22T19:56:58.306Z,4.19
2023-02-22T19:57:58.294Z,3.70
2023-02-22T19:58:58.293Z,3.98
2023-02-22T19:59:58.283Z,4.20
2023-02-22T20:00:58.277Z,3.63
2023-02-22T20:01:58.290Z,4.13
2023-02-22T20:02:58.274Z,3.71
2023-02-22T20:03:58.348Z,4.05
2023-02-22T20:04:58.268Z,4.34
2023-02-22T20:05:58.251Z,4.08
2023-02-22T20:06:58.246Z,3.30
2023-02-22T20:07:58.234Z,3.79
2023-02-22T20:08:58.236Z,4.27
2023-02-22T20:09:58.232Z,4.28
2023-02-22T20:10:58.222Z,4.00
2023-02-22T20:11:58.228Z,4.12
2023-02-22T20:12:58.227Z,3.75
2023-02-22T20:13:58.210Z,4.08
2023-02-22T20:14:58.218Z,4.39
2023-02-22T20:15:58.206Z,3.86
2023-02-22T20:16:58.192Z,4.12
2023-02-22T20:17:58.188Z,3.78
2023-02-22T20:18:58.165Z,3.65